Time;durP1;ratioP1;P1;durP2;ratioP2;P2;SDS_P1;SDS_P2;PMS_P1;PMS_P2;Temp;Humidity;BMP_temperature;BMP_pressure;BME280_temperature;BME280_humidity;BME280_pressure;Samples;Min_cycle;Max_cycle;Signal;HPM_P1;HPM_P2
2021/08/31 00:03:21;;;;;;;39.93;27.90;;;18.10;99.90;;;;;;8249995;28;20487;-82
2021/08/31 00:07:21;;;;;;;46.70;29.33;;;18.00;99.90;;;;;;8240474;28;20189;-78
2021/08/31 00:11:22;;;;;;;49.40;29.13;;;17.90;99.90;;;;;;8261535;28;20193;-78
2021/08/31 00:15:23;;;;;;;46.73;31.60;;;17.90;99.90;;;;;;8238083;28;20235;-79
2021/08/31 00:19:23;;;;;;;54.40;32.47;;;17.80;99.90;;;;;;8238182;28;20591;-78
2021/08/31 00:23:24;;;;;;;55.67;34.27;;;17.60;99.90;;;;;;8239229;28;20227;-80
2021/08/31 00:27:24;;;;;;;57.43;33.40;;;17.50;99.90;;;;;;8236810;28;20184;-77
2021/08/31 00:31:25;;;;;;;58.77;37.07;;;17.40;99.90;;;;;;8237758;28;20189;-77
2021/08/31 00:35:26;;;;;;;73.97;39.23;;;17.30;99.90;;;;;;8234763;28;20195;-80
2021/08/31 00:39:26;;;;;;;65.63;36.80;;;17.20;99.90;;;;;;8246292;28;20182;-81
2021/08/31 00:43:27;;;;;;;70.77;39.27;;;17.20;99.90;;;;;;8241717;28;20226;-78
2021/08/31 00:47:28;;;;;;;72.83;38.90;;;17.10;99.90;;;;;;8238358;28;20218;-79
2021/08/31 00:51:28;;;;;;;75.00;39.87;;;17.00;99.90;;;;;;8240288;28;20179;-78
2021/08/31 00:55:29;;;;;;;71.30;40.80;;;17.00;99.90;;;;;;8238347;28;20207;-81
2021/08/31 00:59:33;;;;;;;74.47;40.17;;;16.90;99.90;;;;;;8241222;28;20182;-79
2021/08/31 01:03:35;;;;;;;85.73;42.53;;;16.80;99.90;;;;;;8425316;23;20313;-81
2021/08/31 01:07:36;;;;;;;90.70;43.00;;;16.80;99.90;;;;;;8242101;28;20477;-79
2021/08/31 01:11:37;;;;;;;87.47;42.93;;;16.70;99.90;;;;;;8229825;28;20433;-79
2021/08/31 01:15:38;;;;;;;82.90;43.40;;;16.60;99.90;;;;;;8233637;28;20433;-80
2021/08/31 01:19:39;;;;;;;91.77;44.20;;;16.50;99.90;;;;;;8252621;28;20453;-79
2021/08/31 01:23:40;;;;;;;88.27;44.00;;;16.50;99.90;;;;;;8235140;28;20189;-81
2021/08/31 01:27:40;;;;;;;95.03;47.47;;;16.50;99.90;;;;;;8235504;28;20441;-80
2021/08/31 01:31:41;;;;;;;103.37;48.30;;;16.40;99.90;;;;;;8226233;28;20626;-79
2021/08/31 01:35:42;;;;;;;104.20;46.53;;;16.40;99.90;;;;;;8231107;28;20277;-79
2021/08/31 01:39:43;;;;;;;97.37;49.57;;;16.40;99.90;;;;;;8227115;28;20448;-82
2021/08/31 01:43:45;;;;;;;105.00;46.67;;;16.40;99.90;;;;;;8227315;28;20276;-79
2021/08/31 01:47:45;;;;;;;128.20;54.53;;;16.30;99.90;;;;;;8243256;28;21102;-82
2021/08/31 01:51:46;;;;;;;108.27;52.10;;;16.30;99.90;;;;;;8234497;28;20453;-80
2021/08/31 01:55:46;;;;;;;107.77;51.80;;;16.30;99.90;;;;;;8231567;28;20201;-83
2021/08/31 01:59:47;;;;;;;96.67;50.17;;;16.20;99.90;;;;;;8241107;28;20190;-79
2021/08/31 02:03:48;;;;;;;110.20;53.27;;;16.20;99.90;;;;;;8255317;28;20371;-79
2021/08/31 02:07:48;;;;;;;125.43;55.13;;;16.20;99.90;;;;;;8232757;28;20628;-80
2021/08/31 02:11:49;;;;;;;117.83;51.93;;;16.20;99.90;;;;;;8231623;28;21386;-79
2021/08/31 02:15:49;;;;;;;116.50;51.97;;;16.20;99.90;;;;;;8242187;28;20198;-80
2021/08/31 02:19:50;;;;;;;116.33;54.67;;;16.10;99.90;;;;;;8219322;28;20182;-79
2021/08/31 02:23:54;;;;;;;114.17;55.23;;;16.10;99.90;;;;;;8228326;28;20268;-79
2021/08/31 02:27:54;;;;;;;105.97;52.00;;;16.10;99.90;;;;;;8241489;28;20674;-80
2021/08/31 02:31:55;;;;;;;110.87;54.37;;;16.10;99.90;;;;;;8229816;28;20477;-79
2021/08/31 02:35:55;;;;;;;111.90;52.40;;;16.10;99.90;;;;;;8232799;28;20252;-79
2021/08/31 02:39:56;;;;;;;128.23;54.87;;;16.10;99.90;;;;;;8239385;28;20218;-81
2021/08/31 02:43:57;;;;;;;116.20;52.80;;;16.10;99.90;;;;;;8255159;28;20182;-80
2021/08/31 02:47:57;;;;;;;102.90;51.27;;;16.20;99.90;;;;;;8231069;28;20194;-79
2021/08/31 02:51:58;;;;;;;108.60;55.13;;;16.20;99.90;;;;;;8226736;28;20637;-78
2021/08/31 02:55:58;;;;;;;110.50;49.90;;;16.10;99.90;;;;;;8224881;28;20189;-80
2021/08/31 03:00:00;;;;;;;92.27;48.07;;;16.10;99.90;;;;;;8233100;28;20222;-79
2021/08/31 03:04:02;;;;;;;96.80;47.70;;;16.10;99.90;;;;;;8227409;28;20243;-78
2021/08/31 03:08:03;;;;;;;108.60;52.70;;;16.00;99.90;;;;;;8225936;28;20999;-80
2021/08/31 03:12:05;;;;;;;102.67;51.30;;;16.00;99.90;;;;;;8229126;28;20469;-80
2021/08/31 03:16:05;;;;;;;102.97;49.97;;;16.00;99.90;;;;;;8222960;28;20504;-81
2021/08/31 03:20:07;;;;;;;90.63;47.63;;;16.00;99.90;;;;;;8231547;28;20488;-81
2021/08/31 03:24:08;;;;;;;82.90;47.07;;;16.00;99.90;;;;;;8237783;28;20235;-81
2021/08/31 03:28:08;;;;;;;92.73;46.17;;;16.10;99.90;;;;;;8245907;28;20971;-80
2021/08/31 03:32:09;;;;;;;98.57;46.93;;;16.10;99.90;;;;;;8231182;28;20468;-80
2021/08/31 03:36:10;;;;;;;101.50;49.43;;;16.10;99.90;;;;;;8229425;28;20186;-80
2021/08/31 03:40:11;;;;;;;87.07;47.37;;;16.10;99.90;;;;;;8232428;28;20679;-81
2021/08/31 03:44:11;;;;;;;92.60;50.63;;;16.10;99.90;;;;;;8235017;28;20186;-79
2021/08/31 03:48:12;;;;;;;101.63;49.93;;;16.10;99.90;;;;;;8244746;28;20641;-81
2021/08/31 03:52:13;;;;;;;101.70;50.97;;;16.20;99.90;;;;;;8228263;28;20660;-80
2021/08/31 03:56:13;;;;;;;114.03;50.40;;;16.20;99.90;;;;;;8225234;28;20180;-82
2021/08/31 04:00:14;;;;;;;99.93;49.97;;;16.30;99.90;;;;;;8231070;28;20238;-77
2021/08/31 04:04:15;;;;;;;97.10;49.30;;;16.30;99.90;;;;;;8240955;28;20592;-81
2021/08/31 04:08:19;;;;;;;86.47;46.10;;;16.30;99.90;;;;;;8230552;28;21411;-81
2021/08/31 04:12:20;;;;;;;100.27;47.47;;;16.30;99.90;;;;;;8237288;28;20182;-80
2021/08/31 04:16:22;;;;;;;91.27;47.57;;;16.30;99.90;;;;;;8252826;28;20449;-81
2021/08/31 04:20:23;;;;;;;98.97;48.80;;;16.30;99.90;;;;;;8249309;28;20473;-82
2021/08/31 04:24:24;;;;;;;93.30;49.33;;;16.30;99.90;;;;;;8232963;28;20468;-78
2021/08/31 04:28:25;;;;;;;95.27;48.90;;;16.30;99.90;;;;;;8228480;28;20449;-79
2021/08/31 04:32:25;;;;;;;86.30;48.67;;;16.30;99.90;;;;;;8231231;28;20189;-79
2021/08/31 04:36:26;;;;;;;94.27;48.47;;;16.40;99.90;;;;;;8243514;28;20182;-76
2021/08/31 04:40:27;;;;;;;97.30;48.77;;;16.40;99.90;;;;;;8220754;28;20209;-77
2021/08/31 04:44:27;;;;;;;105.43;55.40;;;16.30;99.90;;;;;;8224239;28;20181;-77
2021/08/31 04:48:28;;;;;;;98.57;52.10;;;16.30;99.90;;;;;;8219779;28;20193;-79
2021/08/31 04:52:29;;;;;;;98.27;53.77;;;16.30;99.90;;;;;;8235287;28;20193;-81
2021/08/31 04:56:29;;;;;;;103.87;51.97;;;16.20;99.90;;;;;;8221864;28;20599;-77
2021/08/31 05:00:30;;;;;;;105.97;51.00;;;16.20;99.90;;;;;;8226828;28;20209;-77
2021/08/31 05:04:32;;;;;;;96.37;50.60;;;16.30;99.90;;;;;;8225823;28;20701;-77
2021/08/31 05:08:32;;;;;;;86.67;45.47;;;16.30;99.90;;;;;;8221178;28;21092;-77
2021/08/31 05:12:33;;;;;;;92.83;50.97;;;16.40;99.90;;;;;;8239820;28;20438;-81
2021/08/31 05:16:33;;;;;;;90.57;49.07;;;16.40;99.90;;;;;;8219221;28;20186;-77
2021/08/31 05:20:34;;;;;;;88.57;46.00;;;16.40;99.90;;;;;;8219489;28;20202;-76
2021/08/31 05:24:35;;;;;;;93.83;48.40;;;16.50;99.90;;;;;;8219437;28;20659;-77
2021/08/31 05:28:36;;;;;;;115.50;54.70;;;16.60;99.90;;;;;;8222880;28;20444;-77
2021/08/31 05:32:36;;;;;;;112.53;54.20;;;16.60;99.90;;;;;;8222936;28;21040;-77
2021/08/31 05:36:37;;;;;;;144.63;62.20;;;16.60;99.90;;;;;;8228342;28;20275;-79
2021/08/31 05:40:37;;;;;;;137.70;57.97;;;16.60;99.90;;;;;;8228493;28;20214;-81
2021/08/31 05:44:39;;;;;;;128.90;57.47;;;16.60;99.90;;;;;;8234423;28;20210;-85
2021/08/31 05:48:40;;;;;;;138.70;60.17;;;16.60;99.90;;;;;;8234175;28;20213;-81
2021/08/31 05:52:41;;;;;;;145.87;63.00;;;16.60;99.90;;;;;;8226907;28;20499;-82
2021/08/31 05:56:41;;;;;;;146.13;63.50;;;16.70;99.90;;;;;;8215580;28;20187;-81
2021/08/31 06:00:42;;;;;;;132.30;64.30;;;16.70;99.90;;;;;;8232725;28;20268;-80
2021/08/31 06:04:43;;;;;;;133.00;59.93;;;16.80;99.90;;;;;;8225664;28;20233;-82
2021/08/31 06:08:43;;;;;;;116.97;55.43;;;17.00;99.90;;;;;;8239324;28;20200;-82
2021/08/31 06:12:44;;;;;;;133.50;58.87;;;17.10;99.90;;;;;;8228803;28;20215;-80
2021/08/31 06:16:45;;;;;;;112.93;55.00;;;17.10;99.90;;;;;;8231236;28;20194;-81
2021/08/31 06:20:46;;;;;;;114.97;53.17;;;17.20;99.90;;;;;;8222285;28;20552;-81
2021/08/31 06:24:46;;;;;;;107.33;51.70;;;17.40;99.90;;;;;;8231243;28;20187;-80
2021/08/31 06:28:47;;;;;;;99.23;48.40;;;17.50;99.90;;;;;;8235912;28;20188;-84
2021/08/31 06:32:48;;;;;;;100.80;47.90;;;17.60;99.90;;;;;;8227188;28;20214;-81
2021/08/31 06:36:49;;;;;;;77.50;44.33;;;17.80;99.90;;;;;;8222181;28;20205;-81
2021/08/31 06:40:49;;;;;;;85.73;44.43;;;18.00;99.90;;;;;;8216330;28;20217;-82
2021/08/31 06:44:50;;;;;;;77.00;42.60;;;18.20;99.90;;;;;;8223195;28;20451;-80
2021/08/31 06:48:51;;;;;;;78.43;42.40;;;18.20;99.90;;;;;;8243069;28;20192;-80
2021/08/31 06:52:51;;;;;;;85.13;45.10;;;18.20;99.90;;;;;;8219039;28;20208;-81
2021/08/31 06:56:52;;;;;;;79.00;42.47;;;18.20;99.90;;;;;;8224452;28;20569;-78
2021/08/31 07:00:53;;;;;;;89.47;44.10;;;18.20;99.90;;;;;;8225178;28;20316;-85
2021/08/31 07:04:54;;;;;;;109.87;46.93;;;18.20;99.90;;;;;;8231990;28;20481;-77
2021/08/31 07:08:54;;;;;;;91.37;44.60;;;18.10;99.90;;;;;;8245581;28;20196;-78
2021/08/31 07:12:55;;;;;;;94.33;46.67;;;18.00;99.90;;;;;;8221440;28;20521;-81
2021/08/31 07:16:56;;;;;;;90.17;41.73;;;17.90;99.90;;;;;;8231696;28;20279;-80
2021/08/31 07:20:56;;;;;;;82.00;39.57;;;17.90;99.90;;;;;;8226621;28;20297;-83
2021/08/31 07:24:57;;;;;;;82.17;42.63;;;18.00;99.90;;;;;;8240403;28;20257;-80
2021/08/31 07:28:58;;;;;;;72.33;39.03;;;18.10;99.90;;;;;;8219066;28;20984;-81
2021/08/31 07:32:58;;;;;;;87.23;40.30;;;18.20;99.90;;;;;;8234087;28;20510;-85
2021/08/31 07:36:59;;;;;;;109.60;46.77;;;18.30;99.90;;;;;;8250732;28;20288;-81
2021/08/31 07:41:00;;;;;;;90.43;47.90;;;18.20;99.90;;;;;;8228132;28;20213;-81
2021/08/31 07:45:04;;;;;;;97.00;46.10;;;18.10;99.90;;;;;;8228884;28;20613;-85
2021/08/31 07:49:05;;;;;;;95.97;45.37;;;18.00;99.90;;;;;;8250541;28;20650;-80
2021/08/31 07:53:05;;;;;;;101.37;47.63;;;18.00;99.90;;;;;;8229909;28;20443;-79
2021/08/31 07:57:06;;;;;;;123.07;52.23;;;18.00;99.90;;;;;;8250682;28;20668;-80
2021/08/31 08:01:07;;;;;;;89.80;44.30;;;18.00;99.90;;;;;;8226396;28;20209;-80
2021/08/31 08:05:09;;;;;;;91.13;44.13;;;18.00;99.90;;;;;;8241066;28;20553;-81
2021/08/31 08:09:10;;;;;;;93.30;45.57;;;18.10;99.90;;;;;;8227914;28;20799;-81
2021/08/31 08:13:11;;;;;;;111.23;49.10;;;18.10;99.90;;;;;;8255556;28;21026;-81
2021/08/31 08:17:12;;;;;;;117.77;49.97;;;18.00;99.90;;;;;;8241131;28;20197;-79
2021/08/31 08:21:16;;;;;;;107.03;48.20;;;17.90;99.90;;;;;;8246382;28;20602;-80
2021/08/31 08:25:17;;;;;;;105.87;46.20;;;17.70;99.90;;;;;;8224662;28;21015;-81
2021/08/31 08:29:19;;;;;;;105.17;43.10;;;17.70;99.90;;;;;;8238179;28;21154;-80
2021/08/31 08:33:20;;;;;;;109.77;44.70;;;17.70;99.90;;;;;;8236855;28;20510;-81
2021/08/31 08:37:21;;;;;;;101.10;44.50;;;17.70;99.90;;;;;;8234255;28;20437;-81
2021/08/31 08:41:21;;;;;;;97.10;43.23;;;17.70;99.90;;;;;;8240071;28;20491;-82
2021/08/31 08:45:22;;;;;;;100.37;43.43;;;17.80;99.90;;;;;;8235974;28;20223;-81
2021/08/31 08:49:23;;;;;;;99.83;40.67;;;17.90;99.90;;;;;;8239306;28;20213;-80
2021/08/31 08:53:26;;;;;;;109.50;46.13;;;17.90;99.90;;;;;;8247998;28;20193;-79
2021/08/31 08:57:29;;;;;;;111.50;47.10;;;17.90;99.90;;;;;;8244069;28;20541;-78
2021/08/31 09:01:44;;;;;;;95.90;46.40;;;17.90;99.90;;;;;;8249396;28;20476;-84
2021/08/31 09:05:45;;;;;;;102.17;43.67;;;17.90;99.90;;;;;;8241787;28;20482;-79
2021/08/31 09:09:51;;;;;;;101.37;43.73;;;17.90;99.90;;;;;;8240723;28;20974;-80
2021/08/31 09:14:12;;;;;;;99.27;41.97;;;18.00;99.90;;;;;;8231255;28;20278;-81
2021/08/31 09:18:25;;;;;;;99.53;43.60;;;18.10;99.90;;;;;;8225181;28;20444;-80
2021/08/31 09:22:26;;;;;;;102.17;44.37;;;18.30;99.90;;;;;;8236784;28;20476;-80
2021/08/31 09:26:35;;;;;;;95.17;40.37;;;18.40;99.90;;;;;;8251476;28;20436;-80
2021/08/31 09:30:35;;;;;;;113.83;46.87;;;18.40;99.90;;;;;;8226887;28;20465;-81
2021/08/31 09:34:45;;;;;;;100.23;44.73;;;18.40;99.90;;;;;;8227705;28;20466;-81
2021/08/31 09:38:47;;;;;;;107.50;46.93;;;18.40;99.90;;;;;;8246373;28;20186;-79
2021/08/31 09:43:01;;;;;;;94.33;44.00;;;18.60;99.90;;;;;;8209857;28;20476;-80
2021/08/31 09:47:03;;;;;;;97.27;44.93;;;18.80;99.90;;;;;;8219018;28;20964;-79
2021/08/31 09:51:10;;;;;;;102.53;46.37;;;18.90;99.90;;;;;;8232614;28;20445;-80
2021/08/31 09:55:20;;;;;;;98.00;45.30;;;18.90;99.90;;;;;;8228366;28;21009;-82
2021/08/31 09:59:23;;;;;;;99.20;45.07;;;19.00;99.90;;;;;;8221719;28;20887;-79
2021/08/31 10:03:24;;;;;;;96.93;47.33;;;19.00;99.90;;;;;;8237783;28;21149;-80
2021/08/31 10:07:26;;;;;;;98.10;47.60;;;18.90;99.90;;;;;;8223089;28;20464;-81
2021/08/31 10:11:27;;;;;;;96.63;49.40;;;18.90;99.90;;;;;;8226237;28;20445;-80
2021/08/31 10:15:29;;;;;;;91.50;47.80;;;19.00;99.90;;;;;;8248565;28;20448;-80
2021/08/31 10:19:30;;;;;;;97.97;48.83;;;19.00;99.90;;;;;;8228636;28;20445;-80
2021/08/31 10:23:52;;;;;;;98.07;48.90;;;19.10;99.90;;;;;;8244100;28;21030;-81
2021/08/31 10:27:54;;;;;;;111.63;53.50;;;19.10;99.90;;;;;;8224433;28;20198;-83
2021/08/31 10:31:56;;;;;;;100.83;50.17;;;19.10;99.90;;;;;;8252004;28;20503;-81
2021/08/31 10:35:59;;;;;;;98.33;51.70;;;19.00;99.90;;;;;;8239896;28;20437;-77
2021/08/31 10:40:00;;;;;;;103.30;56.60;;;18.90;99.90;;;;;;8230288;28;20464;-86
2021/08/31 10:44:00;;;;;;;87.47;51.77;;;18.80;99.90;;;;;;8239160;28;20464;-83
2021/08/31 10:48:24;;;;;;;93.40;51.17;;;18.80;99.90;;;;;;8232976;28;20178;-84
2021/08/31 10:52:51;;;;;;;87.43;50.90;;;18.80;99.90;;;;;;8222797;28;20225;-79
2021/08/31 10:56:52;;;;;;;96.93;54.63;;;18.90;99.90;;;;;;8234912;28;20850;-79
2021/08/31 11:00:54;;;;;;;96.53;52.43;;;18.90;99.90;;;;;;8230209;28;20543;-81
2021/08/31 11:05:18;;;;;;;94.47;54.40;;;18.80;99.90;;;;;;8239043;28;20265;-81
2021/08/31 11:09:20;;;;;;;94.87;52.60;;;18.70;99.90;;;;;;8217891;28;20464;-81
2021/08/31 11:13:21;;;;;;;89.00;51.30;;;18.60;99.90;;;;;;8231250;28;20486;-79
2021/08/31 11:17:37;;;;;;;90.47;52.43;;;18.60;99.90;;;;;;8248500;28;20440;-78
2021/08/31 11:21:48;;;;;;;69.67;42.87;;;18.60;99.90;;;;;;8249756;28;21007;-83
2021/08/31 11:45:33;;;;;;;88.87;47.10;;;18.80;99.90;;;;;;8231013;28;20442;-81
2021/08/31 11:49:34;;;;;;;79.10;44.93;;;18.80;99.90;;;;;;8232863;28;20480;-81
2021/08/31 11:53:35;;;;;;;72.77;43.63;;;18.90;99.90;;;;;;8234136;28;20449;-84
2021/08/31 11:57:36;;;;;;;71.23;38.37;;;18.90;99.90;;;;;;8245704;28;20597;-84
2021/08/31 12:01:37;;;;;;;64.70;37.00;;;18.80;99.90;;;;;;8236085;28;20469;-82
2021/08/31 12:05:38;;;;;;;71.13;40.00;;;18.90;99.90;;;;;;8233213;28;20229;-80
2021/08/31 12:09:42;;;;;;;67.40;39.93;;;18.90;99.90;;;;;;8232821;28;20441;-83
2021/08/31 12:13:46;;;;;;;61.40;33.10;;;19.00;99.90;;;;;;8236731;28;22211;-78
2021/08/31 12:18:02;;;;;;;53.97;33.70;;;19.20;99.90;;;;;;8238966;28;20541;-78
2021/08/31 12:22:05;;;;;;;45.03;28.07;;;19.70;99.90;;;;;;8230046;28;20569;-79
2021/08/31 12:26:06;;;;;;;38.60;24.17;;;20.40;99.90;;;;;;8247685;28;20494;-80
2021/08/31 12:30:17;;;;;;;37.13;24.67;;;21.40;99.90;;;;;;8227405;28;21011;-78
2021/08/31 12:34:31;;;;;;;46.43;28.00;;;22.10;99.90;;;;;;8218580;28;20178;-81
2021/08/31 12:38:37;;;;;;;39.77;24.70;;;22.50;99.40;;;;;;8220344;28;20490;-78
2021/08/31 12:42:39;;;;;;;40.67;26.80;;;22.90;98.50;;;;;;8218439;28;20436;-78
2021/08/31 12:46:40;;;;;;;37.10;23.70;;;23.20;97.80;;;;;;8217961;28;20439;-78
2021/08/31 12:50:51;;;;;;;36.77;23.47;;;23.60;97.10;;;;;;8215401;28;21053;-81
2021/08/31 12:54:52;;;;;;;34.70;22.53;;;24.00;96.60;;;;;;8234472;28;20450;-78
2021/08/31 12:59:07;;;;;;;34.27;23.47;;;24.40;95.10;;;;;;8219405;28;20495;-79
2021/08/31 13:03:07;;;;;;;31.00;23.37;;;24.60;94.30;;;;;;8215714;28;20651;-79
2021/08/31 13:07:10;;;;;;;34.10;23.60;;;25.00;94.20;;;;;;8212289;28;20488;-80
2021/08/31 13:11:11;;;;;;;32.87;22.63;;;25.30;93.40;;;;;;8217892;28;20198;-81
2021/08/31 13:15:12;;;;;;;32.10;24.50;;;25.30;93.10;;;;;;8232538;28;21131;-79
2021/08/31 13:19:13;;;;;;;34.00;23.93;;;25.40;92.40;;;;;;8216881;28;20186;-81
2021/08/31 13:23:14;;;;;;;29.73;25.20;;;25.00;92.00;;;;;;8215166;28;20830;-83
2021/08/31 13:27:15;;;;;;;27.80;20.87;;;24.90;91.60;;;;;;8216354;28;20463;-81
2021/08/31 13:31:16;;;;;;;26.53;21.23;;;24.80;92.50;;;;;;8212609;28;20284;-78
2021/08/31 13:35:17;;;;;;;32.50;22.00;;;25.20;91.90;;;;;;8220253;28;20779;-79
2021/08/31 13:39:17;;;;;;;28.33;20.50;;;25.50;91.40;;;;;;8222035;28;20449;-77
2021/08/31 13:43:18;;;;;;;25.17;19.00;;;25.40;91.40;;;;;;8215882;28;20281;-80
2021/08/31 13:47:19;;;;;;;31.03;19.43;;;25.40;91.60;;;;;;8217441;28;20210;-84
2021/08/31 13:51:20;;;;;;;26.10;20.10;;;25.50;90.80;;;;;;8243477;28;20256;-80
2021/08/31 13:55:21;;;;;;;22.57;16.77;;;25.70;90.20;;;;;;8223500;28;20201;-78
2021/08/31 13:59:24;;;;;;;22.30;17.20;;;26.00;90.40;;;;;;8226355;28;20437;-77
2021/08/31 14:03:25;;;;;;;21.40;16.80;;;26.20;89.30;;;;;;8219558;28;20280;-78
2021/08/31 14:07:25;;;;;;;22.00;17.40;;;26.00;88.90;;;;;;8219928;28;20440;-76
2021/08/31 14:11:26;;;;;;;23.43;17.80;;;25.40;88.50;;;;;;8215199;28;20212;-82
2021/08/31 14:15:28;;;;;;;28.43;19.90;;;24.80;90.20;;;;;;8233096;28;20190;-79
2021/08/31 14:19:29;;;;;;;22.03;16.60;;;24.40;90.90;;;;;;8212847;28;22189;-83
2021/08/31 14:23:30;;;;;;;20.87;14.40;;;24.20;91.10;;;;;;8213472;28;20874;-76
2021/08/31 14:27:30;;;;;;;24.90;17.33;;;24.30;91.50;;;;;;8211786;28;20217;-83
2021/08/31 14:31:31;;;;;;;26.20;17.33;;;24.50;91.40;;;;;;8216689;28;20301;-80
2021/08/31 14:35:32;;;;;;;24.63;17.07;;;24.50;91.30;;;;;;8230706;28;20257;-77
2021/08/31 14:39:32;;;;;;;19.60;13.67;;;24.70;91.30;;;;;;8216105;28;20186;-78
2021/08/31 14:43:33;;;;;;;22.60;14.53;;;25.00;90.90;;;;;;8219874;28;20959;-78
2021/08/31 14:47:35;;;;;;;21.67;15.27;;;25.50;90.40;;;;;;8216805;28;20188;-79
2021/08/31 14:51:42;;;;;;;22.30;16.30;;;25.50;90.10;;;;;;8225151;28;20673;-79
2021/08/31 14:55:42;;;;;;;20.90;15.50;;;25.20;90.10;;;;;;8221712;28;20445;-79
2021/08/31 14:59:43;;;;;;;19.30;13.27;;;24.90;90.10;;;;;;8212801;28;20441;-78
2021/08/31 15:03:44;;;;;;;19.77;14.80;;;24.50;90.60;;;;;;8221946;28;20248;-78
2021/08/31 15:07:45;;;;;;;23.87;15.73;;;24.00;90.90;;;;;;8218864;28;20427;-77
2021/08/31 15:11:52;;;;;;;21.10;16.20;;;23.70;91.70;;;;;;8221060;28;20257;-79
2021/08/31 15:15:59;;;;;;;24.93;15.60;;;23.50;91.90;;;;;;8218214;28;20201;-78
2021/08/31 15:20:01;;;;;;;21.97;14.67;;;23.50;92.50;;;;;;8229694;28;21073;-78
2021/08/31 15:24:03;;;;;;;20.63;14.50;;;23.80;92.20;;;;;;8230819;28;20530;-80
2021/08/31 15:28:04;;;;;;;17.83;11.40;;;24.30;91.70;;;;;;8223595;28;20449;-81
2021/08/31 15:32:05;;;;;;;19.73;11.60;;;24.60;90.50;;;;;;8219888;28;20968;-79
2021/08/31 15:36:09;;;;;;;16.00;10.77;;;24.80;89.40;;;;;;8236358;28;20182;-78
2021/08/31 15:40:14;;;;;;;15.20;10.00;;;24.90;87.10;;;;;;8210893;28;20504;-81
2021/08/31 15:44:15;;;;;;;15.37;10.93;;;24.80;85.70;;;;;;8218245;28;20445;-80
2021/08/31 15:48:15;;;;;;;14.93;11.00;;;24.90;85.20;;;;;;8213060;28;20174;-78
2021/08/31 15:52:16;;;;;;;12.83;11.13;;;25.10;84.20;;;;;;8217158;28;20201;-78
2021/08/31 15:56:17;;;;;;;15.60;11.00;;;25.20;84.00;;;;;;8219114;28;20654;-78
2021/08/31 16:00:17;;;;;;;17.57;10.53;;;25.20;83.30;;;;;;8218095;28;20186;-77
2021/08/31 16:04:18;;;;;;;14.40;11.10;;;25.20;85.00;;;;;;8216791;28;20222;-81
2021/08/31 16:08:19;;;;;;;18.90;10.90;;;25.30;83.40;;;;;;8219367;28;20261;-79
2021/08/31 16:12:19;;;;;;;12.07;9.27;;;25.40;83.20;;;;;;8223556;28;20186;-80
2021/08/31 16:16:20;;;;;;;13.00;10.60;;;25.40;82.50;;;;;;8230926;28;20175;-79
2021/08/31 16:20:21;;;;;;;20.67;10.47;;;25.40;82.00;;;;;;8229887;28;20190;-82
2021/08/31 16:24:22;;;;;;;15.57;10.43;;;25.40;82.10;;;;;;8222265;28;20517;-80
2021/08/31 16:28:22;;;;;;;15.60;11.57;;;25.20;82.30;;;;;;8222649;28;20269;-83
2021/08/31 16:32:23;;;;;;;11.60;10.17;;;25.10;83.80;;;;;;8221222;28;20194;-82
2021/08/31 16:36:24;;;;;;;12.20;10.03;;;25.00;82.70;;;;;;8216483;28;20193;-78
2021/08/31 16:40:24;;;;;;;13.10;9.80;;;24.80;82.90;;;;;;8212573;28;20221;-81
2021/08/31 16:44:25;;;;;;;14.90;11.10;;;24.60;84.10;;;;;;8218708;28;20189;-82
2021/08/31 16:48:26;;;;;;;15.77;10.97;;;24.30;84.30;;;;;;8213098;28;20186;-80
2021/08/31 16:52:26;;;;;;;15.50;12.30;;;24.20;84.10;;;;;;8210705;28;20194;-82
2021/08/31 16:56:27;;;;;;;17.50;11.60;;;24.00;84.90;;;;;;8212000;28;20275;-81
2021/08/31 17:00:30;;;;;;;17.27;11.90;;;23.80;85.90;;;;;;8220969;28;20253;-80
2021/08/31 17:04:31;;;;;;;17.10;12.70;;;23.60;86.10;;;;;;8217094;28;20234;-82
2021/08/31 17:08:31;;;;;;;16.53;12.37;;;23.40;87.00;;;;;;8213276;28;20892;-82
2021/08/31 17:12:32;;;;;;;15.53;12.37;;;23.20;89.10;;;;;;8211362;28;20190;-79
2021/08/31 17:16:33;;;;;;;16.60;13.10;;;23.00;89.20;;;;;;8215135;28;20182;-83
2021/08/31 17:20:33;;;;;;;18.43;11.70;;;22.70;88.60;;;;;;8212253;28;20323;-77
2021/08/31 17:24:34;;;;;;;16.53;12.60;;;22.50;90.00;;;;;;8208885;28;20185;-78
2021/08/31 17:28:35;;;;;;;17.47;13.03;;;22.30;90.40;;;;;;8223459;28;20190;-76
2021/08/31 17:32:36;;;;;;;18.80;13.80;;;22.20;90.80;;;;;;8222427;28;20556;-78
2021/08/31 17:36:38;;;;;;;17.63;14.23;;;22.00;91.30;;;;;;8230511;28;20195;-77
2021/08/31 17:40:39;;;;;;;18.40;14.10;;;21.90;91.90;;;;;;8213313;28;20480;-78
2021/08/31 17:44:40;;;;;;;22.13;14.90;;;21.70;92.40;;;;;;8211085;28;20452;-80
2021/08/31 17:48:41;;;;;;;16.20;12.63;;;21.50;92.50;;;;;;8218407;28;20195;-78
2021/08/31 17:52:43;;;;;;;20.23;13.63;;;21.40;92.70;;;;;;8215023;28;20212;-78
2021/08/31 17:56:44;;;;;;;23.40;11.40;;;21.20;92.70;;;;;;8205842;28;20244;-78
2021/08/31 18:00:45;;;;;;;21.97;15.73;;;21.10;93.30;;;;;;8202220;28;20466;-83
2021/08/31 18:04:45;;;;;;;32.53;16.80;;;20.90;94.20;;;;;;8198518;28;20287;-82
2021/08/31 18:08:46;;;;;;;21.30;16.80;;;20.70;95.20;;;;;;8206413;28;20181;-81
2021/08/31 18:12:48;;;;;;;24.40;17.50;;;20.50;95.90;;;;;;8225855;28;20208;-79
2021/08/31 18:16:48;;;;;;;26.63;19.13;;;20.30;96.10;;;;;;8210445;28;20438;-78
2021/08/31 18:20:51;;;;;;;24.87;18.37;;;20.10;96.40;;;;;;8206524;28;20228;-79
2021/08/31 18:24:52;;;;;;;24.90;18.50;;;19.90;96.70;;;;;;8209220;28;20624;-77
2021/08/31 18:28:52;;;;;;;27.00;20.03;;;19.80;97.10;;;;;;8225030;28;20449;-78
2021/08/31 18:32:53;;;;;;;23.07;18.53;;;19.60;97.60;;;;;;8214956;28;20193;-81
2021/08/31 18:36:54;;;;;;;23.20;18.50;;;19.50;98.10;;;;;;8201920;28;20194;-78
2021/08/31 18:40:54;;;;;;;33.37;20.00;;;19.30;98.10;;;;;;8202604;28;20218;-79
2021/08/31 18:44:55;;;;;;;26.30;18.87;;;19.20;98.40;;;;;;8202552;28;20680;-82
2021/08/31 18:48:58;;;;;;;27.00;18.63;;;19.10;98.70;;;;;;8203183;28;20200;-78
2021/08/31 18:52:59;;;;;;;25.87;19.47;;;18.90;99.10;;;;;;8205910;28;20193;-83
2021/08/31 18:57:00;;;;;;;23.77;17.20;;;18.80;99.40;;;;;;8192682;28;20444;-78
2021/08/31 19:01:01;;;;;;;29.27;19.60;;;18.70;99.30;;;;;;8189464;28;21422;-78
2021/08/31 19:05:02;;;;;;;36.13;19.93;;;18.60;99.30;;;;;;8206633;28;20487;-80
2021/08/31 19:09:03;;;;;;;26.40;20.20;;;18.50;99.50;;;;;;8193052;28;20511;-79
2021/08/31 19:13:03;;;;;;;30.17;20.13;;;18.50;99.60;;;;;;8212331;28;20491;-81
2021/08/31 19:17:04;;;;;;;28.37;17.80;;;18.40;99.70;;;;;;8215184;28;20189;-79
2021/08/31 19:21:05;;;;;;;23.60;17.67;;;18.30;99.80;;;;;;8206206;28;20286;-80
2021/08/31 19:25:06;;;;;;;27.57;18.47;;;18.30;99.90;;;;;;8207481;28;20238;-78
2021/08/31 19:29:07;;;;;;;23.60;18.17;;;18.20;99.90;;;;;;8202961;28;20192;-81
2021/08/31 19:33:07;;;;;;;22.80;16.83;;;18.20;99.90;;;;;;8219629;28;20539;-77
2021/08/31 19:37:08;;;;;;;27.50;17.60;;;18.10;99.90;;;;;;8231623;28;20201;-79
2021/08/31 19:41:09;;;;;;;20.60;17.80;;;18.10;99.90;;;;;;8224668;28;20216;-79
2021/08/31 19:45:12;;;;;;;18.77;16.03;;;18.00;99.90;;;;;;8229249;28;20942;-77
2021/08/31 19:49:12;;;;;;;22.60;16.37;;;18.00;99.90;;;;;;8217900;28;20484;-79
2021/08/31 19:53:13;;;;;;;24.80;16.90;;;17.90;99.90;;;;;;8229255;28;20449;-79
2021/08/31 19:57:14;;;;;;;24.53;15.87;;;17.90;99.90;;;;;;8227034;28;20184;-78
2021/08/31 20:01:15;;;;;;;25.50;15.07;;;17.90;99.90;;;;;;8218046;28;20575;-81
2021/08/31 20:05:15;;;;;;;23.90;15.83;;;17.80;99.90;;;;;;8220181;28;20232;-78
2021/08/31 20:09:16;;;;;;;19.80;15.60;;;17.90;99.90;;;;;;8214189;28;20196;-80
2021/08/31 20:13:16;;;;;;;21.83;16.00;;;17.80;99.90;;;;;;8224822;28;20205;-79
2021/08/31 20:17:18;;;;;;;23.37;15.87;;;17.80;99.90;;;;;;8227079;28;20180;-78
2021/08/31 20:21:19;;;;;;;23.37;16.90;;;17.80;99.90;;;;;;8222830;28;20217;-79
2021/08/31 20:25:20;;;;;;;23.83;15.60;;;17.80;99.90;;;;;;8224969;28;20502;-79
2021/08/31 20:29:22;;;;;;;23.23;14.23;;;17.80;99.90;;;;;;8215277;28;20186;-80
2021/08/31 20:33:23;;;;;;;23.57;15.83;;;17.80;99.90;;;;;;8221269;28;20307;-79
2021/08/31 20:37:24;;;;;;;21.73;15.30;;;17.90;99.90;;;;;;8215660;28;20533;-80
2021/08/31 20:41:24;;;;;;;21.57;14.53;;;17.90;99.90;;;;;;8218040;28;20221;-79
2021/08/31 20:45:25;;;;;;;26.17;15.87;;;18.00;99.90;;;;;;8218629;28;20620;-79